sensor_id;sensor_type;location;lat;lon;timestamp;P1;durP1;ratioP1;P2;durP2;ratioP2
46899;SDS011;32647;49.382;7.078;2023-08-30T00:00:20;0.20;;;0.20;;
46899;SDS011;32647;49.382;7.078;2023-08-30T00:03:06;0.22;;;0.22;;
46899;SDS011;32647;49.382;7.078;2023-08-30T00:05:53;0.20;;;0.20;;
46899;SDS011;32647;49.382;7.078;2023-08-30T00:08:40;0.20;;;0.20;;
46899;SDS011;32647;49.382;7.078;2023-08-30T00:11:26;0.20;;;0.20;;
46899;SDS011;32647;49.382;7.078;2023-08-30T00:14:15;0.20;;;0.20;;
46899;SDS011;32647;49.382;7.078;2023-08-30T00:17:01;0.20;;;0.20;;
46899;SDS011;32647;49.382;7.078;2023-08-30T00:19:47;0.20;;;0.20;;
46899;SDS011;32647;49.382;7.078;2023-08-30T00:22:33;0.20;;;0.20;;
46899;SDS011;32647;49.382;7.078;2023-08-30T00:25:19;0.20;;;0.20;;
46899;SDS011;32647;49.382;7.078;2023-08-30T00:28:05;0.20;;;0.20;;
46899;SDS011;32647;49.382;7.078;2023-08-30T00:30:55;0.20;;;0.20;;
46899;SDS011;32647;49.382;7.078;2023-08-30T00:33:41;0.52;;;0.52;;
46899;SDS011;32647;49.382;7.078;2023-08-30T00:36:27;0.20;;;0.20;;
46899;SDS011;32647;49.382;7.078;2023-08-30T00:39:13;0.20;;;0.20;;
46899;SDS011;32647;49.382;7.078;2023-08-30T00:41:59;0.20;;;0.20;;
46899;SDS011;32647;49.382;7.078;2023-08-30T00:44:50;0.20;;;0.20;;
46899;SDS011;32647;49.382;7.078;2023-08-30T00:47:36;0.20;;;0.20;;
46899;SDS011;32647;49.382;7.078;2023-08-30T00:50:22;0.20;;;0.20;;
46899;SDS011;32647;49.382;7.078;2023-08-30T00:53:09;0.20;;;0.20;;
46899;SDS011;32647;49.382;7.078;2023-08-30T00:55:56;0.20;;;0.20;;
46899;SDS011;32647;49.382;7.078;2023-08-30T00:58:42;0.20;;;0.20;;
46899;SDS011;32647;49.382;7.078;2023-08-30T01:01:28;0.20;;;0.20;;
46899;SDS011;32647;49.382;7.078;2023-08-30T01:04:14;0.32;;;0.32;;
46899;SDS011;32647;49.382;7.078;2023-08-30T01:07:00;0.20;;;0.20;;
46899;SDS011;32647;49.382;7.078;2023-08-30T01:09:46;0.20;;;0.20;;
46899;SDS011;32647;49.382;7.078;2023-08-30T01:15:53;0.20;;;0.20;;
46899;SDS011;32647;49.382;7.078;2023-08-30T01:18:40;0.20;;;0.20;;
46899;SDS011;32647;49.382;7.078;2023-08-30T01:21:30;0.20;;;0.20;;
46899;SDS011;32647;49.382;7.078;2023-08-30T01:24:26;0.20;;;0.20;;
46899;SDS011;32647;49.382;7.078;2023-08-30T01:27:40;0.20;;;0.20;;
46899;SDS011;32647;49.382;7.078;2023-08-30T01:30:30;0.20;;;0.20;;
46899;SDS011;32647;49.382;7.078;2023-08-30T01:33:18;0.15;;;0.15;;
46899;SDS011;32647;49.382;7.078;2023-08-30T01:36:04;0.20;;;0.20;;
46899;SDS011;32647;49.382;7.078;2023-08-30T01:38:51;0.20;;;0.20;;
46899;SDS011;32647;49.382;7.078;2023-08-30T01:41:38;0.20;;;0.20;;
46899;SDS011;32647;49.382;7.078;2023-08-30T01:44:26;0.20;;;0.20;;
46899;SDS011;32647;49.382;7.078;2023-08-30T01:47:14;0.20;;;0.20;;
46899;SDS011;32647;49.382;7.078;2023-08-30T01:50:01;0.52;;;0.52;;
46899;SDS011;32647;49.382;7.078;2023-08-30T01:52:49;0.20;;;0.20;;
46899;SDS011;32647;49.382;7.078;2023-08-30T01:55:35;0.20;;;0.20;;
46899;SDS011;32647;49.382;7.078;2023-08-30T01:58:22;0.40;;;0.40;;
46899;SDS011;32647;49.382;7.078;2023-08-30T02:01:08;0.20;;;0.20;;
46899;SDS011;32647;49.382;7.078;2023-08-30T02:03:54;0.20;;;0.20;;
46899;SDS011;32647;49.382;7.078;2023-08-30T02:06:48;0.20;;;0.20;;
46899;SDS011;32647;49.382;7.078;2023-08-30T02:09:49;0.90;;;0.90;;
46899;SDS011;32647;49.382;7.078;2023-08-30T02:12:47;0.30;;;0.30;;
46899;SDS011;32647;49.382;7.078;2023-08-30T02:15:37;0.20;;;0.20;;
46899;SDS011;32647;49.382;7.078;2023-08-30T02:18:27;0.20;;;0.20;;
46899;SDS011;32647;49.382;7.078;2023-08-30T02:21:13;0.20;;;0.20;;
46899;SDS011;32647;49.382;7.078;2023-08-30T02:23:59;0.20;;;0.20;;
46899;SDS011;32647;49.382;7.078;2023-08-30T02:26:45;0.22;;;0.22;;
46899;SDS011;32647;49.382;7.078;2023-08-30T02:29:31;0.20;;;0.20;;
46899;SDS011;32647;49.382;7.078;2023-08-30T02:32:17;0.20;;;0.20;;
46899;SDS011;32647;49.382;7.078;2023-08-30T02:35:06;0.20;;;0.20;;
46899;SDS011;32647;49.382;7.078;2023-08-30T02:37:52;0.20;;;0.20;;
46899;SDS011;32647;49.382;7.078;2023-08-30T02:40:38;0.20;;;0.20;;
46899;SDS011;32647;49.382;7.078;2023-08-30T02:43:24;0.63;;;0.63;;
46899;SDS011;32647;49.382;7.078;2023-08-30T02:46:10;0.10;;;0.10;;
46899;SDS011;32647;49.382;7.078;2023-08-30T02:48:56;0.30;;;0.30;;
46899;SDS011;32647;49.382;7.078;2023-08-30T02:51:42;0.20;;;0.20;;
46899;SDS011;32647;49.382;7.078;2023-08-30T02:54:27;0.20;;;0.20;;
46899;SDS011;32647;49.382;7.078;2023-08-30T02:57:13;0.40;;;0.40;;
46899;SDS011;32647;49.382;7.078;2023-08-30T03:00:00;0.20;;;0.20;;
46899;SDS011;32647;49.382;7.078;2023-08-30T03:02:45;0.20;;;0.20;;
46899;SDS011;32647;49.382;7.078;2023-08-30T03:05:31;21.98;;;20.85;;
46899;SDS011;32647;49.382;7.078;2023-08-30T03:08:17;2.05;;;2.05;;
46899;SDS011;32647;49.382;7.078;2023-08-30T03:11:07;1999.90;;;999.90;;
46899;SDS011;32647;49.382;7.078;2023-08-30T03:13:56;0.70;;;0.70;;
46899;SDS011;32647;49.382;7.078;2023-08-30T03:16:42;206.05;;;195.32;;
46899;SDS011;32647;49.382;7.078;2023-08-30T03:19:30;1999.90;;;999.90;;
46899;SDS011;32647;49.382;7.078;2023-08-30T03:22:16;1999.90;;;999.90;;
46899;SDS011;32647;49.382;7.078;2023-08-30T03:25:02;1999.90;;;999.90;;
46899;SDS011;32647;49.382;7.078;2023-08-30T03:27:48;532.15;;;280.52;;
46899;SDS011;32647;49.382;7.078;2023-08-30T03:30:34;1.98;;;1.98;;
46899;SDS011;32647;49.382;7.078;2023-08-30T03:33:20;1999.90;;;999.90;;
46899;SDS011;32647;49.382;7.078;2023-08-30T03:36:07;1999.90;;;999.90;;
46899;SDS011;32647;49.382;7.078;2023-08-30T03:38:54;1999.90;;;999.90;;
46899;SDS011;32647;49.382;7.078;2023-08-30T03:41:40;1999.90;;;999.90;;
46899;SDS011;32647;49.382;7.078;2023-08-30T03:44:26;1999.90;;;999.90;;
46899;SDS011;32647;49.382;7.078;2023-08-30T03:47:12;1999.90;;;999.90;;
46899;SDS011;32647;49.382;7.078;2023-08-30T03:49:58;1999.90;;;999.90;;
46899;SDS011;32647;49.382;7.078;2023-08-30T03:52:44;1999.90;;;999.90;;
46899;SDS011;32647;49.382;7.078;2023-08-30T03:55:30;1999.90;;;999.90;;
46899;SDS011;32647;49.382;7.078;2023-08-30T03:58:19;1999.90;;;999.90;;
46899;SDS011;32647;49.382;7.078;2023-08-30T04:01:05;1228.28;;;152.18;;
46899;SDS011;32647;49.382;7.078;2023-08-30T04:03:52;2.00;;;2.00;;
46899;SDS011;32647;49.382;7.078;2023-08-30T04:06:38;2.00;;;2.00;;
46899;SDS011;32647;49.382;7.078;2023-08-30T04:09:24;2.00;;;2.00;;
46899;SDS011;32647;49.382;7.078;2023-08-30T04:12:10;1.70;;;1.70;;
46899;SDS011;32647;49.382;7.078;2023-08-30T04:14:55;1.77;;;1.77;;
46899;SDS011;32647;49.382;7.078;2023-08-30T04:17:41;1.70;;;1.70;;
46899;SDS011;32647;49.382;7.078;2023-08-30T04:20:27;1.70;;;1.70;;
46899;SDS011;32647;49.382;7.078;2023-08-30T04:23:13;1.60;;;1.60;;
46899;SDS011;32647;49.382;7.078;2023-08-30T04:25:59;1.80;;;1.80;;
46899;SDS011;32647;49.382;7.078;2023-08-30T04:28:45;1.50;;;1.50;;
46899;SDS011;32647;49.382;7.078;2023-08-30T04:31:31;1.83;;;1.83;;
46899;SDS011;32647;49.382;7.078;2023-08-30T04:34:17;1.80;;;1.80;;
46899;SDS011;32647;49.382;7.078;2023-08-30T04:37:04;2.90;;;2.80;;
46899;SDS011;32647;49.382;7.078;2023-08-30T04:39:50;2.70;;;2.60;;
46899;SDS011;32647;49.382;7.078;2023-08-30T04:42:36;2.60;;;2.50;;
46899;SDS011;32647;49.382;7.078;2023-08-30T04:45:22;2.80;;;2.70;;
46899;SDS011;32647;49.382;7.078;2023-08-30T04:48:09;2.60;;;2.50;;
46899;SDS011;32647;49.382;7.078;2023-08-30T04:51:01;2.55;;;2.45;;
46899;SDS011;32647;49.382;7.078;2023-08-30T04:53:50;2.80;;;2.70;;
46899;SDS011;32647;49.382;7.078;2023-08-30T04:56:36;3.30;;;3.20;;
46899;SDS011;32647;49.382;7.078;2023-08-30T04:59:22;2.95;;;2.85;;
46899;SDS011;32647;49.382;7.078;2023-08-30T05:02:09;2.70;;;2.60;;
46899;SDS011;32647;49.382;7.078;2023-08-30T05:04:55;2.90;;;2.80;;
46899;SDS011;32647;49.382;7.078;2023-08-30T05:07:41;3.95;;;3.53;;
46899;SDS011;32647;49.382;7.078;2023-08-30T05:10:27;3.20;;;3.10;;
46899;SDS011;32647;49.382;7.078;2023-08-30T05:13:15;2.90;;;2.80;;
46899;SDS011;32647;49.382;7.078;2023-08-30T05:16:01;3.65;;;3.55;;
46899;SDS011;32647;49.382;7.078;2023-08-30T05:18:48;3.00;;;2.90;;
46899;SDS011;32647;49.382;7.078;2023-08-30T05:21:34;2.92;;;2.83;;
46899;SDS011;32647;49.382;7.078;2023-08-30T05:24:21;4.10;;;3.90;;
46899;SDS011;32647;49.382;7.078;2023-08-30T05:27:12;3.70;;;3.50;;
46899;SDS011;32647;49.382;7.078;2023-08-30T05:30:00;5.72;;;5.43;;
46899;SDS011;32647;49.382;7.078;2023-08-30T05:32:46;5.70;;;5.40;;
46899;SDS011;32647;49.382;7.078;2023-08-30T05:35:31;5.60;;;5.30;;
46899;SDS011;32647;49.382;7.078;2023-08-30T05:38:18;5.40;;;5.10;;
46899;SDS011;32647;49.382;7.078;2023-08-30T05:41:03;5.40;;;5.10;;
46899;SDS011;32647;49.382;7.078;2023-08-30T05:43:51;5.05;;;4.82;;
46899;SDS011;32647;49.382;7.078;2023-08-30T05:46:37;4.22;;;4.03;;
46899;SDS011;32647;49.382;7.078;2023-08-30T05:49:23;4.65;;;4.45;;
46899;SDS011;32647;49.382;7.078;2023-08-30T05:52:09;6.30;;;5.90;;
46899;SDS011;32647;49.382;7.078;2023-08-30T05:54:55;4.10;;;3.90;;
46899;SDS011;32647;49.382;7.078;2023-08-30T05:57:41;1124.43;;;585.65;;
46899;SDS011;32647;49.382;7.078;2023-08-30T06:00:27;82.43;;;50.95;;
46899;SDS011;32647;49.382;7.078;2023-08-30T06:03:13;1.15;;;1.15;;
46899;SDS011;32647;49.382;7.078;2023-08-30T06:05:58;712.67;;;321.67;;
46899;SDS011;32647;49.382;7.078;2023-08-30T06:08:44;1999.90;;;999.90;;
46899;SDS011;32647;49.382;7.078;2023-08-30T06:11:30;416.13;;;136.55;;
46899;SDS011;32647;49.382;7.078;2023-08-30T06:14:18;1999.90;;;999.90;;
46899;SDS011;32647;49.382;7.078;2023-08-30T06:17:04;1999.90;;;999.90;;
46899;SDS011;32647;49.382;7.078;2023-08-30T06:19:50;1999.90;;;999.90;;
46899;SDS011;32647;49.382;7.078;2023-08-30T06:22:36;1999.90;;;999.90;;
46899;SDS011;32647;49.382;7.078;2023-08-30T06:25:22;1999.90;;;999.90;;
46899;SDS011;32647;49.382;7.078;2023-08-30T06:28:08;1999.90;;;999.90;;
46899;SDS011;32647;49.382;7.078;2023-08-30T06:30:54;1999.90;;;999.90;;
46899;SDS011;32647;49.382;7.078;2023-08-30T06:33:40;1999.90;;;999.90;;
46899;SDS011;32647;49.382;7.078;2023-08-30T06:36:26;1999.90;;;999.90;;
46899;SDS011;32647;49.382;7.078;2023-08-30T06:39:12;1999.90;;;999.90;;
46899;SDS011;32647;49.382;7.078;2023-08-30T06:41:58;1999.90;;;999.90;;
46899;SDS011;32647;49.382;7.078;2023-08-30T06:44:44;1999.90;;;999.90;;
46899;SDS011;32647;49.382;7.078;2023-08-30T06:47:30;1999.90;;;999.90;;
46899;SDS011;32647;49.382;7.078;2023-08-30T06:50:16;1999.90;;;999.90;;
46899;SDS011;32647;49.382;7.078;2023-08-30T06:53:02;1999.90;;;999.90;;
46899;SDS011;32647;49.382;7.078;2023-08-30T06:56:09;1999.90;;;999.90;;
46899;SDS011;32647;49.382;7.078;2023-08-30T06:58:54;1999.90;;;999.90;;
46899;SDS011;32647;49.382;7.078;2023-08-30T07:01:40;1999.90;;;999.90;;
46899;SDS011;32647;49.382;7.078;2023-08-30T07:04:26;1999.90;;;999.90;;
46899;SDS011;32647;49.382;7.078;2023-08-30T07:07:13;1999.90;;;999.90;;
46899;SDS011;32647;49.382;7.078;2023-08-30T07:09:59;1999.90;;;999.90;;
46899;SDS011;32647;49.382;7.078;2023-08-30T07:12:45;1999.90;;;999.90;;
46899;SDS011;32647;49.382;7.078;2023-08-30T07:15:33;1999.90;;;999.90;;
46899;SDS011;32647;49.382;7.078;2023-08-30T07:18:19;1999.90;;;999.90;;
46899;SDS011;32647;49.382;7.078;2023-08-30T07:21:05;1999.90;;;999.90;;
46899;SDS011;32647;49.382;7.078;2023-08-30T07:23:51;1999.90;;;999.90;;
46899;SDS011;32647;49.382;7.078;2023-08-30T07:26:37;1999.90;;;999.90;;
46899;SDS011;32647;49.382;7.078;2023-08-30T07:29:23;1999.90;;;999.90;;
46899;SDS011;32647;49.382;7.078;2023-08-30T07:32:09;1999.90;;;999.90;;
46899;SDS011;32647;49.382;7.078;2023-08-30T07:34:55;1999.90;;;999.90;;
46899;SDS011;32647;49.382;7.078;2023-08-30T07:37:41;1999.90;;;999.90;;
46899;SDS011;32647;49.382;7.078;2023-08-30T07:40:27;1999.90;;;999.90;;
46899;SDS011;32647;49.382;7.078;2023-08-30T07:43:14;1999.90;;;999.90;;
46899;SDS011;32647;49.382;7.078;2023-08-30T07:46:02;1999.90;;;999.90;;
46899;SDS011;32647;49.382;7.078;2023-08-30T07:48:48;1999.90;;;999.90;;
46899;SDS011;32647;49.382;7.078;2023-08-30T07:51:34;1999.90;;;999.90;;
46899;SDS011;32647;49.382;7.078;2023-08-30T07:54:20;1999.90;;;999.90;;
46899;SDS011;32647;49.382;7.078;2023-08-30T07:57:06;1999.90;;;999.90;;
46899;SDS011;32647;49.382;7.078;2023-08-30T07:59:52;1999.90;;;999.90;;
46899;SDS011;32647;49.382;7.078;2023-08-30T08:02:39;1999.90;;;999.90;;
46899;SDS011;32647;49.382;7.078;2023-08-30T08:05:26;1999.90;;;999.90;;
46899;SDS011;32647;49.382;7.078;2023-08-30T08:08:12;1999.90;;;999.90;;
46899;SDS011;32647;49.382;7.078;2023-08-30T08:11:00;1999.90;;;999.90;;
46899;SDS011;32647;49.382;7.078;2023-08-30T08:13:47;1999.90;;;999.90;;
46899;SDS011;32647;49.382;7.078;2023-08-30T08:16:33;1999.90;;;999.90;;
46899;SDS011;32647;49.382;7.078;2023-08-30T08:19:19;1999.90;;;999.90;;
46899;SDS011;32647;49.382;7.078;2023-08-30T08:22:06;1999.90;;;999.90;;
46899;SDS011;32647;49.382;7.078;2023-08-30T08:24:53;1999.90;;;999.90;;
46899;SDS011;32647;49.382;7.078;2023-08-30T08:27:41;1999.90;;;999.90;;
46899;SDS011;32647;49.382;7.078;2023-08-30T08:30:28;1999.90;;;999.90;;
46899;SDS011;32647;49.382;7.078;2023-08-30T08:33:14;1999.90;;;999.90;;
46899;SDS011;32647;49.382;7.078;2023-08-30T08:35:59;1999.90;;;999.90;;
46899;SDS011;32647;49.382;7.078;2023-08-30T08:38:46;1999.90;;;999.90;;
46899;SDS011;32647;49.382;7.078;2023-08-30T08:41:50;1999.90;;;999.90;;
46899;SDS011;32647;49.382;7.078;2023-08-30T08:44:38;1999.90;;;999.90;;
46899;SDS011;32647;49.382;7.078;2023-08-30T08:47:25;1999.90;;;999.90;;
46899;SDS011;32647;49.382;7.078;2023-08-30T08:50:12;1999.90;;;999.90;;
46899;SDS011;32647;49.382;7.078;2023-08-30T08:52:59;1999.90;;;999.90;;
46899;SDS011;32647;49.382;7.078;2023-08-30T08:55:47;1999.90;;;999.90;;
46899;SDS011;32647;49.382;7.078;2023-08-30T08:58:35;1999.90;;;999.90;;
46899;SDS011;32647;49.382;7.078;2023-08-30T09:01:23;1999.90;;;999.90;;
46899;SDS011;32647;49.382;7.078;2023-08-30T09:04:10;1999.90;;;999.90;;
46899;SDS011;32647;49.382;7.078;2023-08-30T09:06:58;1999.90;;;999.90;;
46899;SDS011;32647;49.382;7.078;2023-08-30T09:09:44;1999.90;;;999.90;;
46899;SDS011;32647;49.382;7.078;2023-08-30T09:12:34;1999.90;;;999.90;;
46899;SDS011;32647;49.382;7.078;2023-08-30T09:15:21;1999.90;;;999.90;;
46899;SDS011;32647;49.382;7.078;2023-08-30T09:18:17;1999.90;;;999.90;;
46899;SDS011;32647;49.382;7.078;2023-08-30T09:21:09;1999.90;;;999.90;;
46899;SDS011;32647;49.382;7.078;2023-08-30T09:24:05;1999.90;;;999.90;;
46899;SDS011;32647;49.382;7.078;2023-08-30T09:26:52;1999.90;;;999.90;;
46899;SDS011;32647;49.382;7.078;2023-08-30T09:29:39;1999.90;;;999.90;;
46899;SDS011;32647;49.382;7.078;2023-08-30T09:32:29;1999.90;;;999.90;;
46899;SDS011;32647;49.382;7.078;2023-08-30T09:35:15;1999.90;;;999.90;;
46899;SDS011;32647;49.382;7.078;2023-08-30T09:38:00;1999.90;;;999.90;;
46899;SDS011;32647;49.382;7.078;2023-08-30T09:40:47;1999.90;;;999.90;;
46899;SDS011;32647;49.382;7.078;2023-08-30T09:43:33;1999.90;;;999.90;;
46899;SDS011;32647;49.382;7.078;2023-08-30T09:46:19;1999.90;;;999.90;;
46899;SDS011;32647;49.382;7.078;2023-08-30T09:49:05;1999.90;;;999.90;;
46899;SDS011;32647;49.382;7.078;2023-08-30T09:51:53;1999.90;;;999.90;;
46899;SDS011;32647;49.382;7.078;2023-08-30T09:54:40;1999.90;;;999.90;;
46899;SDS011;32647;49.382;7.078;2023-08-30T09:57:29;1999.90;;;999.90;;
46899;SDS011;32647;49.382;7.078;2023-08-30T10:15:25;1999.90;;;999.90;;
46899;SDS011;32647;49.382;7.078;2023-08-30T10:18:12;1999.90;;;999.90;;
46899;SDS011;32647;49.382;7.078;2023-08-30T10:21:01;1999.90;;;999.90;;
46899;SDS011;32647;49.382;7.078;2023-08-30T10:23:51;1999.90;;;999.90;;
46899;SDS011;32647;49.382;7.078;2023-08-30T10:26:41;1999.90;;;999.90;;
46899;SDS011;32647;49.382;7.078;2023-08-30T10:29:29;1999.90;;;999.90;;
46899;SDS011;32647;49.382;7.078;2023-08-30T10:32:20;1999.90;;;999.90;;
46899;SDS011;32647;49.382;7.078;2023-08-30T10:35:11;1999.90;;;999.90;;
46899;SDS011;32647;49.382;7.078;2023-08-30T10:38:00;1999.90;;;999.90;;
46899;SDS011;32647;49.382;7.078;2023-08-30T10:40:49;1999.90;;;999.90;;
46899;SDS011;32647;49.382;7.078;2023-08-30T10:43:35;1999.90;;;999.90;;
46899;SDS011;32647;49.382;7.078;2023-08-30T10:46:32;1999.90;;;999.90;;
46899;SDS011;32647;49.382;7.078;2023-08-30T10:49:19;1999.90;;;999.90;;
46899;SDS011;32647;49.382;7.078;2023-08-30T10:52:11;1999.90;;;999.90;;
46899;SDS011;32647;49.382;7.078;2023-08-30T10:55:04;1999.90;;;999.90;;
46899;SDS011;32647;49.382;7.078;2023-08-30T10:57:59;1999.90;;;999.90;;
46899;SDS011;32647;49.382;7.078;2023-08-30T11:00:46;1999.90;;;999.90;;
46899;SDS011;32647;49.382;7.078;2023-08-30T11:03:40;1999.90;;;999.90;;
46899;SDS011;32647;49.382;7.078;2023-08-30T11:06:27;1999.90;;;999.90;;
46899;SDS011;32647;49.382;7.078;2023-08-30T11:09:13;1999.90;;;999.90;;
46899;SDS011;32647;49.382;7.078;2023-08-30T11:12:10;1999.90;;;999.90;;
46899;SDS011;32647;49.382;7.078;2023-08-30T11:14:56;1999.90;;;999.90;;
46899;SDS011;32647;49.382;7.078;2023-08-30T11:17:42;1999.90;;;999.90;;
46899;SDS011;32647;49.382;7.078;2023-08-30T11:20:28;1999.90;;;999.90;;
46899;SDS011;32647;49.382;7.078;2023-08-30T11:23:14;1999.90;;;999.90;;
46899;SDS011;32647;49.382;7.078;2023-08-30T11:26:01;1999.90;;;999.90;;
46899;SDS011;32647;49.382;7.078;2023-08-30T11:28:49;1999.90;;;999.90;;
46899;SDS011;32647;49.382;7.078;2023-08-30T11:31:37;1999.90;;;999.90;;
46899;SDS011;32647;49.382;7.078;2023-08-30T11:34:24;1999.90;;;999.90;;
46899;SDS011;32647;49.382;7.078;2023-08-30T11:37:12;1999.90;;;999.90;;
46899;SDS011;32647;49.382;7.078;2023-08-30T11:39:59;1999.90;;;999.90;;
46899;SDS011;32647;49.382;7.078;2023-08-30T11:42:46;1999.90;;;999.90;;
46899;SDS011;32647;49.382;7.078;2023-08-30T11:45:33;1999.90;;;999.90;;
46899;SDS011;32647;49.382;7.078;2023-08-30T11:48:22;1999.90;;;999.90;;
46899;SDS011;32647;49.382;7.078;2023-08-30T11:51:08;1999.90;;;999.90;;
46899;SDS011;32647;49.382;7.078;2023-08-30T11:53:54;1999.90;;;999.90;;
46899;SDS011;32647;49.382;7.078;2023-08-30T11:56:41;1999.90;;;999.90;;
46899;SDS011;32647;49.382;7.078;2023-08-30T11:59:27;1999.90;;;999.90;;
46899;SDS011;32647;49.382;7.078;2023-08-30T12:02:16;15.60;;;7.97;;
46899;SDS011;32647;49.382;7.078;2023-08-30T12:05:03;1999.90;;;999.90;;
46899;SDS011;32647;49.382;7.078;2023-08-30T12:07:49;1999.90;;;999.90;;
46899;SDS011;32647;49.382;7.078;2023-08-30T12:10:36;1999.90;;;999.90;;
46899;SDS011;32647;49.382;7.078;2023-08-30T12:16:15;1999.90;;;999.90;;
46899;SDS011;32647;49.382;7.078;2023-08-30T12:19:12;55.58;;;52.97;;
46899;SDS011;32647;49.382;7.078;2023-08-30T12:22:06;41.47;;;39.58;;
46899;SDS011;32647;49.382;7.078;2023-08-30T12:24:55;34.30;;;32.70;;
46899;SDS011;32647;49.382;7.078;2023-08-30T12:27:49;28.23;;;26.92;;
46899;SDS011;32647;49.382;7.078;2023-08-30T12:30:35;20.88;;;19.88;;
46899;SDS011;32647;49.382;7.078;2023-08-30T12:33:21;10.38;;;9.93;;
46899;SDS011;32647;49.382;7.078;2023-08-30T12:36:08;0.38;;;0.38;;
46899;SDS011;32647;49.382;7.078;2023-08-30T12:38:54;0.93;;;0.93;;
46899;SDS011;32647;49.382;7.078;2023-08-30T12:41:40;1.88;;;1.88;;
46899;SDS011;32647;49.382;7.078;2023-08-30T12:44:28;13.35;;;12.75;;
46899;SDS011;32647;49.382;7.078;2023-08-30T12:47:14;19.30;;;18.33;;
46899;SDS011;32647;49.382;7.078;2023-08-30T12:50:00;1.42;;;1.42;;
46899;SDS011;32647;49.382;7.078;2023-08-30T12:52:46;0.40;;;0.40;;
46899;SDS011;32647;49.382;7.078;2023-08-30T12:55:33;11.00;;;10.50;;
46899;SDS011;32647;49.382;7.078;2023-08-30T12:58:19;12.55;;;11.95;;
46899;SDS011;32647;49.382;7.078;2023-08-30T13:04:04;16.60;;;15.80;;
46899;SDS011;32647;49.382;7.078;2023-08-30T13:06:50;17.27;;;16.48;;
46899;SDS011;32647;49.382;7.078;2023-08-30T13:09:37;1999.90;;;999.90;;
46899;SDS011;32647;49.382;7.078;2023-08-30T13:12:23;1999.90;;;999.90;;
46899;SDS011;32647;49.382;7.078;2023-08-30T13:15:09;1999.90;;;999.90;;
46899;SDS011;32647;49.382;7.078;2023-08-30T13:17:55;1999.90;;;999.90;;
46899;SDS011;32647;49.382;7.078;2023-08-30T13:20:42;1999.90;;;999.90;;
46899;SDS011;32647;49.382;7.078;2023-08-30T13:23:28;1999.90;;;999.90;;
46899;SDS011;32647;49.382;7.078;2023-08-30T13:26:14;1999.90;;;999.90;;
46899;SDS011;32647;49.382;7.078;2023-08-30T13:28:59;1999.90;;;999.90;;
46899;SDS011;32647;49.382;7.078;2023-08-30T13:31:47;1999.90;;;999.90;;
46899;SDS011;32647;49.382;7.078;2023-08-30T13:34:33;1999.90;;;999.90;;
46899;SDS011;32647;49.382;7.078;2023-08-30T13:37:22;1999.90;;;999.90;;
46899;SDS011;32647;49.382;7.078;2023-08-30T13:40:09;1999.90;;;999.90;;
46899;SDS011;32647;49.382;7.078;2023-08-30T13:42:55;0.50;;;0.50;;
46899;SDS011;32647;49.382;7.078;2023-08-30T13:45:41;0.90;;;0.90;;
46899;SDS011;32647;49.382;7.078;2023-08-30T13:48:28;0.30;;;0.30;;
46899;SDS011;32647;49.382;7.078;2023-08-30T13:51:20;0.68;;;0.68;;
46899;SDS011;32647;49.382;7.078;2023-08-30T13:54:08;0.65;;;0.65;;
46899;SDS011;32647;49.382;7.078;2023-08-30T13:56:56;4.00;;;0.70;;
46899;SDS011;32647;49.382;7.078;2023-08-30T13:59:45;0.43;;;0.43;;
46899;SDS011;32647;49.382;7.078;2023-08-30T14:02:31;0.88;;;0.88;;
46899;SDS011;32647;49.382;7.078;2023-08-30T14:05:17;0.70;;;0.70;;
46899;SDS011;32647;49.382;7.078;2023-08-30T14:08:03;1.00;;;1.00;;
46899;SDS011;32647;49.382;7.078;2023-08-30T14:10:54;0.10;;;0.10;;
46899;SDS011;32647;49.382;7.078;2023-08-30T14:13:40;0.10;;;0.10;;
46899;SDS011;32647;49.382;7.078;2023-08-30T14:16:28;0.10;;;0.10;;
46899;SDS011;32647;49.382;7.078;2023-08-30T14:19:19;0.10;;;0.10;;
46899;SDS011;32647;49.382;7.078;2023-08-30T14:22:11;0.10;;;0.10;;
46899;SDS011;32647;49.382;7.078;2023-08-30T14:24:57;0.10;;;0.10;;
46899;SDS011;32647;49.382;7.078;2023-08-30T14:27:43;0.10;;;0.10;;
46899;SDS011;32647;49.382;7.078;2023-08-30T14:30:30;0.10;;;0.10;;
46899;SDS011;32647;49.382;7.078;2023-08-30T14:33:17;0.10;;;0.10;;
46899;SDS011;32647;49.382;7.078;2023-08-30T14:36:11;0.10;;;0.10;;
46899;SDS011;32647;49.382;7.078;2023-08-30T14:38:58;0.10;;;0.10;;
46899;SDS011;32647;49.382;7.078;2023-08-30T14:41:46;0.10;;;0.10;;
46899;SDS011;32647;49.382;7.078;2023-08-30T14:44:32;0.10;;;0.10;;
46899;SDS011;32647;49.382;7.078;2023-08-30T14:47:18;0.10;;;0.10;;
46899;SDS011;32647;49.382;7.078;2023-08-30T14:50:06;0.10;;;0.10;;
46899;SDS011;32647;49.382;7.078;2023-08-30T14:52:53;0.10;;;0.10;;
46899;SDS011;32647;49.382;7.078;2023-08-30T14:55:40;0.17;;;0.17;;
46899;SDS011;32647;49.382;7.078;2023-08-30T14:58:29;0.10;;;0.10;;
46899;SDS011;32647;49.382;7.078;2023-08-30T15:01:15;0.15;;;0.15;;
46899;SDS011;32647;49.382;7.078;2023-08-30T15:04:01;0.10;;;0.10;;
46899;SDS011;32647;49.382;7.078;2023-08-30T15:06:47;0.20;;;0.20;;
46899;SDS011;32647;49.382;7.078;2023-08-30T15:12:49;0.20;;;0.20;;
46899;SDS011;32647;49.382;7.078;2023-08-30T15:15:35;0.10;;;0.10;;
46899;SDS011;32647;49.382;7.078;2023-08-30T15:18:21;0.10;;;0.10;;
46899;SDS011;32647;49.382;7.078;2023-08-30T15:21:07;0.10;;;0.10;;
46899;SDS011;32647;49.382;7.078;2023-08-30T15:23:53;0.10;;;0.10;;
46899;SDS011;32647;49.382;7.078;2023-08-30T15:26:39;0.10;;;0.10;;
46899;SDS011;32647;49.382;7.078;2023-08-30T15:29:26;0.10;;;0.10;;
46899;SDS011;32647;49.382;7.078;2023-08-30T15:32:12;0.10;;;0.10;;
46899;SDS011;32647;49.382;7.078;2023-08-30T15:34:58;0.10;;;0.10;;
46899;SDS011;32647;49.382;7.078;2023-08-30T15:37:44;0.10;;;0.10;;
46899;SDS011;32647;49.382;7.078;2023-08-30T15:40:30;0.10;;;0.10;;
46899;SDS011;32647;49.382;7.078;2023-08-30T15:43:18;0.10;;;0.10;;
46899;SDS011;32647;49.382;7.078;2023-08-30T15:46:11;0.10;;;0.10;;
46899;SDS011;32647;49.382;7.078;2023-08-30T15:48:57;0.15;;;0.15;;
46899;SDS011;32647;49.382;7.078;2023-08-30T15:51:43;0.20;;;0.20;;
46899;SDS011;32647;49.382;7.078;2023-08-30T15:54:29;0.10;;;0.10;;
46899;SDS011;32647;49.382;7.078;2023-08-30T15:57:15;0.10;;;0.10;;
46899;SDS011;32647;49.382;7.078;2023-08-30T16:00:01;0.10;;;0.10;;
46899;SDS011;32647;49.382;7.078;2023-08-30T16:02:49;0.10;;;0.10;;
46899;SDS011;32647;49.382;7.078;2023-08-30T16:05:38;0.20;;;0.20;;
46899;SDS011;32647;49.382;7.078;2023-08-30T16:08:24;0.10;;;0.10;;
46899;SDS011;32647;49.382;7.078;2023-08-30T16:11:13;0.10;;;0.10;;
46899;SDS011;32647;49.382;7.078;2023-08-30T16:14:02;0.20;;;0.20;;
46899;SDS011;32647;49.382;7.078;2023-08-30T16:16:49;0.20;;;0.20;;
46899;SDS011;32647;49.382;7.078;2023-08-30T16:19:38;0.20;;;0.20;;
46899;SDS011;32647;49.382;7.078;2023-08-30T16:22:24;0.20;;;0.20;;
46899;SDS011;32647;49.382;7.078;2023-08-30T16:25:10;0.20;;;0.20;;
46899;SDS011;32647;49.382;7.078;2023-08-30T16:28:00;3.33;;;3.22;;
46899;SDS011;32647;49.382;7.078;2023-08-30T16:30:49;0.20;;;0.20;;
46899;SDS011;32647;49.382;7.078;2023-08-30T16:33:35;0.30;;;0.30;;
46899;SDS011;32647;49.382;7.078;2023-08-30T16:36:21;0.30;;;0.30;;
46899;SDS011;32647;49.382;7.078;2023-08-30T16:39:09;0.20;;;0.20;;
46899;SDS011;32647;49.382;7.078;2023-08-30T16:41:55;0.30;;;0.30;;